Time;durP1;ratioP1;P1;durP2;ratioP2;P2;SDS_P1;SDS_P2;PMS_P1;PMS_P2;Temp;Humidity;BMP_temperature;BMP_pressure;BME280_temperature;BME280_humidity;BME280_pressure;Samples;Min_cycle;Max_cycle;Signal;HPM_P1;HPM_P2
2023/07/05 00:03:17;;;;;;;32.50;15.80;;;;;;;14.07;66.85;99776.58;218123;1257;140217;-69
2023/07/05 00:08:22;;;;;;;32.00;16.40;;;;;;;13.92;66.89;99780.38;218150;1257;140459;-69
2023/07/05 00:13:26;;;;;;;22.90;15.50;;;;;;;13.76;67.04;99782.27;218678;1256;140150;-70
2023/07/05 00:18:33;;;;;;;24.50;18.50;;;;;;;13.69;67.56;99786.06;218778;1256;140802;-69
2023/07/05 00:23:39;;;;;;;28.60;18.40;;;;;;;13.64;67.77;99783.08;218408;1259;141387;-69
2023/07/05 00:28:44;;;;;;;23.10;15.20;;;;;;;13.59;68.01;99781.26;218924;1256;141338;-70
2023/07/05 00:33:48;;;;;;;38.60;18.10;;;;;;;13.48;67.80;99780.06;218687;1256;141011;-69
2023/07/05 00:38:53;;;;;;;28.70;17.90;;;;;;;13.43;68.38;99778.26;219773;1256;140763;-70
2023/07/05 00:43:57;;;;;;;25.40;14.70;;;;;;;13.37;68.26;99776.86;219554;1256;141091;-69
2023/07/05 00:49:11;;;;;;;29.70;15.20;;;;;;;13.23;68.26;99773.53;220368;1256;140596;-68
2023/07/05 00:54:22;;;;;;;30.70;17.40;;;;;;;13.08;68.76;99769.22;217681;1260;140400;-69
2023/07/05 00:59:34;;;;;;;35.00;19.20;;;;;;;12.98;69.06;99765.83;219932;1256;140873;-70
2023/07/05 01:04:38;;;;;;;31.40;18.80;;;;;;;12.94;69.08;99769.42;220416;1256;140844;-68
2023/07/05 01:09:42;;;;;;;27.90;17.60;;;;;;;12.89;69.45;99769.41;218795;1256;142143;-69
2023/07/05 01:14:52;;;;;;;26.50;18.90;;;;;;;12.87;69.83;99769.66;218137;1256;141051;-69
2023/07/05 01:20:28;;;;;;;25.40;16.30;;;;;;;12.83;69.79;99767.91;219420;1257;141023;-70
2023/07/05 01:26:18;;;;;;;22.80;14.80;;;;;;;12.62;69.59;99763.45;217642;1256;140305;-68
2023/07/05 01:31:54;;;;;;;28.10;17.30;;;;;;;12.39;70.21;99763.02;218082;1257;141998;-68
2023/07/05 01:36:58;;;;;;;21.70;15.40;;;;;;;12.34;70.43;99769.42;218790;1256;140302;-69
2023/07/05 01:42:04;;;;;;;29.20;18.40;;;;;;;12.23;70.77;99770.17;218524;1256;141107;-69
2023/07/05 01:47:18;;;;;;;31.10;16.70;;;;;;;12.07;70.91;99778.16;219070;1256;140128;-69
2023/07/05 01:52:27;;;;;;;24.80;15.90;;;;;;;11.95;71.10;99778.02;217919;1260;140915;-68
2023/07/05 01:58:03;;;;;;;31.20;19.10;;;;;;;11.91;71.67;99780.69;217839;1259;140368;-69
2023/07/05 02:03:12;;;;;;;27.40;16.70;;;;;;;11.94;71.73;99777.36;217667;1257;140092;-68
2023/07/05 02:08:19;;;;;;;25.90;17.60;;;;;;;11.86;71.78;99776.11;218724;1257;140244;-67
2023/07/05 02:13:24;;;;;;;25.40;15.30;;;;;;;11.72;71.75;99775.56;217654;1257;141090;-68
2023/07/05 02:18:29;;;;;;;25.70;15.20;;;;;;;11.65;71.98;99781.43;218143;1256;140403;-68
2023/07/05 02:23:33;;;;;;;27.90;18.30;;;;;;;11.57;72.10;99772.64;218159;1256;144172;-68
2023/07/05 02:28:37;;;;;;;29.20;17.40;;;;;;;11.54;72.36;99768.44;218244;1257;140090;-68
2023/07/05 02:33:44;;;;;;;26.30;17.20;;;;;;;11.49;72.43;99771.74;218951;1256;140637;-68
2023/07/05 02:38:51;;;;;;;27.70;16.70;;;;;;;11.42;72.54;99774.88;218606;1257;140621;-68
2023/07/05 02:43:55;;;;;;;26.50;16.80;;;;;;;11.40;72.78;99768.64;219254;1257;140021;-69
2023/07/05 02:49:00;;;;;;;26.20;16.40;;;;;;;11.49;73.14;99764.88;219236;1257;139994;-68
2023/07/05 02:54:04;;;;;;;25.90;15.60;;;;;;;11.52;73.04;99766.95;219285;1257;141475;-68
2023/07/05 02:59:09;;;;;;;20.30;15.00;;;;;;;11.48;73.08;99768.75;220394;1256;140892;-68
2023/07/05 03:04:14;;;;;;;27.40;14.80;;;;;;;11.45;72.84;99766.02;220018;1256;140385;-69
2023/07/05 03:09:18;;;;;;;30.80;17.20;;;;;;;11.43;73.00;99767.54;220380;1257;140257;-69
2023/07/05 03:14:23;;;;;;;20.20;13.30;;;;;;;11.46;73.05;99768.06;218634;1256;140878;-68
2023/07/05 03:19:27;;;;;;;34.80;16.60;;;;;;;11.47;73.39;99770.34;219524;1257;141416;-68
2023/07/05 03:24:31;;;;;;;24.30;15.60;;;;;;;11.51;73.61;99776.38;219128;1257;140902;-68
2023/07/05 03:29:35;;;;;;;32.60;16.80;;;;;;;11.56;73.88;99780.59;219457;1256;141433;-68
2023/07/05 03:34:40;;;;;;;23.90;16.90;;;;;;;11.64;74.34;99773.77;218150;1260;140567;-67
2023/07/05 03:39:45;;;;;;;28.50;17.60;;;;;;;11.84;74.81;99775.48;218480;1259;140433;-67
2023/07/05 03:44:49;;;;;;;30.30;16.40;;;;;;;12.02;74.58;99774.11;218181;1260;140565;-68
2023/07/05 03:49:54;;;;;;;24.10;15.50;;;;;;;12.14;74.56;99773.63;218366;1257;139989;-67
2023/07/05 03:54:58;;;;;;;25.80;15.60;;;;;;;12.27;74.68;99774.13;218077;1256;140343;-67
2023/07/05 04:00:02;;;;;;;23.70;15.80;;;;;;;12.43;74.47;99770.91;218795;1256;141578;-67
2023/07/05 04:05:06;;;;;;;27.50;16.50;;;;;;;12.61;74.43;99770.61;217835;1257;140383;-67
2023/07/05 04:10:11;;;;;;;33.50;18.50;;;;;;;12.81;74.97;99772.59;218637;1261;140887;-67
2023/07/05 04:15:15;;;;;;;26.70;16.00;;;;;;;13.02;75.19;99773.65;217792;1257;140465;-67
2023/07/05 04:20:19;;;;;;;27.50;17.20;;;;;;;13.19;75.03;99774.29;218885;1257;141254;-67
2023/07/05 04:25:23;;;;;;;29.10;17.50;;;;;;;13.48;75.14;99777.66;217958;1260;140605;-67
2023/07/05 04:30:27;;;;;;;23.70;16.20;;;;;;;13.98;75.37;99769.75;218993;1256;141499;-67
2023/07/05 04:35:33;;;;;;;24.30;16.70;;;;;;;14.44;75.32;99767.63;218345;1260;140986;-67
2023/07/05 04:40:37;;;;;;;30.90;16.10;;;;;;;15.17;74.73;99766.02;218438;1256;140520;-68
2023/07/05 04:45:52;;;;;;;26.40;15.60;;;;;;;16.12;73.97;99768.11;219886;1256;140107;-69
2023/07/05 04:50:57;;;;;;;29.20;16.40;;;;;;;16.82;73.19;99770.35;219256;1257;141511;-66
2023/07/05 04:56:01;;;;;;;26.10;16.80;;;;;;;17.64;72.34;99771.34;220190;1256;140961;-69
2023/07/05 05:01:07;;;;;;;33.00;16.70;;;;;;;18.15;71.38;99766.70;220214;1256;140254;-66
2023/07/05 05:06:11;;;;;;;;;;;;;;;18.78;70.49;99766.92;220384;1256;141557;-66
2023/07/05 05:11:15;;;;;;;23.90;14.30;;;;;;;19.37;69.45;99767.00;219472;1257;126845;-68
2023/07/05 05:16:20;;;;;;;15.80;12.00;;;;;;;21.30;67.09;99767.41;217690;1257;141309;-67
2023/07/05 05:21:25;;;;;;;19.80;12.20;;;;;;;23.92;63.90;99755.94;218522;1258;140110;-67
2023/07/05 05:26:29;;;;;;;18.40;12.30;;;;;;;26.31;60.77;99762.81;218578;1257;139638;-68
2023/07/05 05:31:33;;;;;;;16.50;10.30;;;;;;;28.18;56.19;99766.45;218907;1257;139602;-68
2023/07/05 05:36:37;;;;;;;15.10;10.70;;;;;;;29.75;53.13;99768.70;219296;1257;139631;-64
2023/07/05 05:41:41;;;;;;;19.70;10.80;;;;;;;31.32;50.46;99765.58;218657;1257;139591;-65
2023/07/05 05:46:46;;;;;;;15.00;8.60;;;;;;;32.66;47.38;99762.90;218492;1257;140100;-69
2023/07/05 05:51:51;;;;;;;12.70;7.70;;;;;;;33.82;44.62;99762.89;218389;1256;140398;-65
2023/07/05 05:56:57;;;;;;;7.50;6.40;;;;;;;34.78;41.89;99761.39;218338;1260;139765;-69
2023/07/05 06:02:01;;;;;;;8.90;6.80;;;;;;;35.44;38.76;99763.73;219179;1256;139987;-67
2023/07/05 06:07:06;;;;;;;11.40;6.60;;;;;;;35.92;36.36;99758.77;217920;1262;139876;-67
2023/07/05 06:12:12;;;;;;;7.50;6.10;;;;;;;36.26;34.70;99754.05;218294;1260;140636;-68
2023/07/05 06:17:19;;;;;;;11.10;6.00;;;;;;;36.60;33.05;99752.27;217783;1256;139792;-67
2023/07/05 06:22:25;;;;;;;9.90;6.60;;;;;;;36.95;32.22;99747.19;217842;1257;139643;-67
2023/07/05 06:27:30;;;;;;;7.50;6.80;;;;;;;36.95;30.42;99748.23;219240;1256;139995;-67
2023/07/05 06:32:35;;;;;;;10.20;6.60;;;;;;;36.62;29.43;99746.80;218421;1257;140113;-67
2023/07/05 06:37:40;;;;;;;8.30;6.00;;;;;;;37.12;29.83;99746.08;218817;1257;140519;-67
2023/07/05 06:42:48;;;;;;;15.00;7.10;;;;;;;37.38;28.80;99744.58;218242;1256;138694;-67
2023/07/05 06:47:53;;;;;;;7.50;6.30;;;;;;;36.39;28.11;99739.99;218329;1256;139838;-67
2023/07/05 06:52:57;;;;;;;11.00;6.80;;;;;;;36.39;28.23;99736.20;220307;1256;139667;-68
2023/07/05 06:58:24;;;;;;;18.90;8.30;;;;;;;36.58;27.63;99732.55;219482;1256;139603;-68
2023/07/05 07:03:29;;;;;;;9.60;7.00;;;;;;;36.66;27.15;99731.20;219229;1256;139710;-67
2023/07/05 07:08:35;;;;;;;10.60;7.90;;;;;;;36.28;26.91;99720.40;218158;1261;140763;-68
2023/07/05 07:13:41;;;;;;;12.60;7.30;;;;;;;36.48;27.22;99714.14;218772;1257;140127;-67
2023/07/05 07:18:49;;;;;;;8.00;7.20;;;;;;;37.08;27.05;99712.36;218712;1256;141174;-68
2023/07/05 07:23:55;;;;;;;10.10;8.10;;;;;;;36.83;26.46;99707.77;218727;1261;140204;-68
2023/07/05 07:29:00;;;;;;;11.70;8.00;;;;;;;35.65;26.38;99703.46;218959;1257;139238;-69
2023/07/05 07:34:07;;;;;;;9.50;8.10;;;;;;;34.40;27.04;99705.24;218054;1257;140658;-69
2023/07/05 07:39:14;;;;;;;12.90;8.90;;;;;;;34.36;27.53;99702.71;218749;1257;139302;-69
2023/07/05 07:44:19;;;;;;;12.80;9.90;;;;;;;34.46;28.32;99702.80;218382;1260;139831;-70
2023/07/05 07:49:23;;;;;;;12.70;9.10;;;;;;;34.20;27.73;99697.39;218567;1256;139950;-68
2023/07/05 07:54:30;;;;;;;25.20;11.40;;;;;;;33.77;28.36;99700.02;218870;1256;139040;-68
2023/07/05 07:59:40;;;;;;;13.80;11.10;;;;;;;33.44;28.79;99689.48;217704;1259;139714;-64
2023/07/05 08:04:46;;;;;;;23.70;13.10;;;;;;;33.02;28.86;99686.98;218479;1257;139277;-70
2023/07/05 08:09:56;;;;;;;13.80;11.70;;;;;;;32.47;29.18;99692.27;218061;1256;141368;-69
2023/07/05 08:15:02;;;;;;;15.50;11.50;;;;;;;32.11;29.70;99685.66;218749;1256;140628;-69
2023/07/05 08:20:06;;;;;;;16.00;12.90;;;;;;;32.29;29.84;99681.20;217514;1262;140813;-68
2023/07/05 08:25:10;;;;;;;;;;;;;;;31.95;29.69;99676.14;218351;1256;140663;-68
2023/07/05 08:30:16;;;;;;;16.90;13.60;;;;;;;31.45;30.00;99670.63;219494;1256;125951;-68
2023/07/05 08:35:21;;;;;;;16.70;12.00;;;;;;;31.03;30.82;99663.40;217941;1257;140723;-67
2023/07/05 08:40:36;;;;;;;15.30;12.90;;;;;;;31.53;31.53;99660.96;218825;1256;139588;-68
2023/07/05 08:45:46;;;;;;;14.80;12.10;;;;;;;31.87;31.33;99664.23;218989;1261;140303;-68
2023/07/05 08:50:56;;;;;;;19.20;11.70;;;;;;;31.83;30.81;99663.17;218937;1256;139702;-68
2023/07/05 08:56:24;;;;;;;18.60;13.10;;;;;;;31.72;31.28;99654.17;220377;1256;225496;-69
2023/07/05 09:01:37;;;;;;;13.10;10.60;;;;;;;31.94;31.70;99646.76;219537;1256;140471;-67
2023/07/05 09:06:52;;;;;;;10.60;9.50;;;;;;;32.06;31.44;99642.36;220312;1257;139756;-68
2023/07/05 09:12:16;;;;;;;13.10;11.70;;;;;;;31.80;31.44;99646.54;217796;1259;139617;-68
2023/07/05 09:17:49;;;;;;;13.40;9.90;;;;;;;31.36;31.66;99639.58;218118;1261;141668;-70
2023/07/05 09:22:58;;;;;;;14.80;11.10;;;;;;;31.62;32.31;99630.99;217641;1262;140650;-69
2023/07/05 09:28:22;;;;;;;11.50;9.50;;;;;;;31.93;32.10;99620.52;218405;1260;139723;-68
2023/07/05 09:34:01;;;;;;;12.00;10.50;;;;;;;31.93;32.11;99616.27;217894;1260;139896;-69
2023/07/05 09:39:34;;;;;;;18.90;9.40;;;;;;;31.55;31.80;99613.04;218772;1257;140003;-69
2023/07/05 09:44:39;;;;;;;10.30;8.20;;;;;;;31.81;32.67;99612.60;218516;1260;139835;-69
2023/07/05 09:49:44;;;;;;;12.60;8.60;;;;;;;31.36;32.13;99609.75;218258;1258;141109;-68
2023/07/05 09:54:57;;;;;;;10.00;8.40;;;;;;;30.79;32.73;99607.00;218802;1259;140398;-69
2023/07/05 10:00:04;;;;;;;9.80;8.30;;;;;;;30.62;33.49;99603.78;218571;1258;139024;-67
2023/07/05 10:05:23;;;;;;;10.70;8.70;;;;;;;30.23;33.45;99602.66;217976;1260;139088;-68
2023/07/05 10:10:35;;;;;;;17.90;9.50;;;;;;;30.15;34.09;99600.56;218517;1260;140547;-69
2023/07/05 10:15:47;;;;;;;11.90;10.00;;;;;;;30.41;34.51;99591.05;218077;1257;139900;-68
2023/07/05 10:20:52;;;;;;;8.50;7.40;;;;;;;30.26;34.46;99582.27;219419;1257;139792;-68
2023/07/05 10:26:06;;;;;;;11.40;8.30;;;;;;;30.22;35.33;99571.13;218070;1258;140725;-69
2023/07/05 10:31:26;;;;;;;8.70;6.80;;;;;;;30.57;35.14;99568.98;218062;1260;139170;-69
2023/07/05 10:36:32;;;;;;;9.30;6.70;;;;;;;31.04;35.19;99562.65;218402;1260;139136;-69
2023/07/05 10:41:37;;;;;;;9.80;7.50;;;;;;;31.32;34.65;99560.86;218425;1257;753642;-70
2023/07/05 10:46:45;;;;;;;7.80;7.00;;;;;;;31.64;34.75;99558.26;219134;1257;139388;-69
2023/07/05 10:51:55;;;;;;;8.10;6.50;;;;;;;31.97;33.87;99543.43;219538;1257;139888;-69
2023/07/05 10:57:06;;;;;;;7.40;6.50;;;;;;;32.09;33.97;99536.02;218737;1257;139751;-69
2023/07/05 11:02:36;;;;;;;8.20;5.20;;;;;;;31.71;33.71;99528.95;217635;1258;139883;-68
2023/07/05 11:07:43;;;;;;;8.20;5.60;;;;;;;31.53;33.31;99522.10;218173;1258;140631;-72
2023/07/05 11:12:48;;;;;;;8.00;4.70;;;;;;;31.62;33.60;99521.16;217677;1260;141225;-75
2023/07/05 11:17:52;;;;;;;6.50;5.70;;;;;;;31.36;33.49;99515.82;218588;1257;140323;-72
2023/07/05 11:22:55;;;;;;;8.00;5.20;;;;;;;31.02;33.13;99509.31;218201;1257;139919;-73
2023/07/05 11:27:59;;;;;;;6.20;4.90;;;;;;;31.45;33.43;99505.58;217600;1257;139000;-69
2023/07/05 11:33:08;;;;;;;5.10;4.50;;;;;;;31.79;33.10;99492.34;218154;1260;139189;-70
2023/07/05 11:38:45;;;;;;;6.60;5.10;;;;;;;31.78;32.46;99488.56;217937;1259;139580;-70
2023/07/05 11:44:02;;;;;;;6.30;5.10;;;;;;;31.84;32.61;99484.59;217747;1257;139855;-73
2023/07/05 11:49:32;;;;;;;7.50;5.20;;;;;;;31.52;32.48;99478.97;217844;1260;139382;-70
2023/07/05 11:54:53;;;;;;;5.90;4.00;;;;;;;30.82;32.42;99468.82;218066;1257;139175;-71
2023/07/05 12:00:23;;;;;;;7.50;4.40;;;;;;;30.51;32.75;99463.35;217761;1257;138911;-69
2023/07/05 12:05:34;;;;;;;13.20;5.00;;;;;;;30.15;33.37;99454.06;217833;1258;139905;-69
2023/07/05 12:10:46;;;;;;;5.10;4.40;;;;;;;29.94;33.78;99442.85;217860;1257;139334;-70
2023/07/05 12:15:55;;;;;;;6.70;4.90;;;;;;;30.09;34.11;99425.56;217915;1260;139845;-71
2023/07/05 12:21:06;;;;;;;6.60;5.00;;;;;;;30.27;33.64;99418.73;218282;1256;139295;-71
2023/07/05 12:26:31;;;;;;;4.80;4.30;;;;;;;30.76;33.63;99411.04;219154;1256;138926;-71
2023/07/05 12:31:37;;;;;;;5.50;4.70;;;;;;;31.32;33.42;99405.77;217917;1257;139006;-71
2023/07/05 12:36:43;;;;;;;7.70;5.40;;;;;;;31.71;33.43;99391.58;219847;1257;139678;-70
2023/07/05 12:42:09;;;;;;;7.80;5.20;;;;;;;31.74;32.81;99386.48;220317;1257;150417;-71
2023/07/05 12:47:18;;;;;;;6.50;5.20;;;;;;;31.61;32.88;99374.48;220213;1257;139598;-72
2023/07/05 12:52:23;;;;;;;4.80;4.20;;;;;;;31.70;32.65;99369.61;220018;1256;141165;-76
2023/07/05 12:57:33;;;;;;;7.70;4.90;;;;;;;31.45;31.79;99365.58;220340;1257;139837;-71
2023/07/05 13:02:37;;;;;;;5.20;4.80;;;;;;;31.21;31.89;99361.54;219465;1256;139215;-69
2023/07/05 13:07:42;;;;;;;7.30;4.70;;;;;;;31.01;31.80;99360.02;218171;1257;139593;-67
2023/07/05 13:12:53;;;;;;;6.40;5.30;;;;;;;30.84;32.05;99356.25;219194;1257;138969;-68
2023/07/05 13:18:14;;;;;;;6.90;5.20;;;;;;;30.89;32.57;99358.95;218279;1259;139097;-70
2023/07/05 13:23:28;;;;;;;5.10;4.00;;;;;;;31.01;32.55;99356.55;218302;1257;139719;-67
2023/07/05 13:28:35;;;;;;;4.80;4.20;;;;;;;31.32;32.36;99353.13;218027;1256;139643;-70
2023/07/05 13:33:43;;;;;;;5.10;3.80;;;;;;;31.51;32.20;99346.95;218067;1257;139662;-75
2023/07/05 13:38:49;;;;;;;10.50;5.20;;;;;;;31.57;32.01;99342.34;218109;1257;139439;-67
2023/07/05 13:43:54;;;;;;;4.20;3.80;;;;;;;31.35;30.96;99335.44;218073;1256;140535;-71
2023/07/05 13:48:59;;;;;;;6.30;4.50;;;;;;;30.83;30.40;99336.52;218508;1256;138895;-69
2023/07/05 13:54:05;;;;;;;;;;;;;;;30.61;31.08;99338.58;218347;1256;139099;-69
2023/07/05 13:59:19;;;;;;;4.60;4.30;;;;;;;30.53;31.04;99334.80;219042;1256;126411;-72
2023/07/05 14:04:24;;;;;;;3.60;3.20;;;;;;;30.45;31.02;99336.27;218115;1257;139041;-69
2023/07/05 14:09:29;;;;;;;6.90;4.10;;;;;;;30.41;31.57;99341.34;217816;1257;139732;-69
2023/07/05 14:14:34;;;;;;;5.70;4.40;;;;;;;30.42;31.92;99346.70;217719;1257;138973;-70
2023/07/05 14:19:39;;;;;;;5.40;4.00;;;;;;;30.33;31.75;99346.13;217789;1258;139504;-69
2023/07/05 14:24:46;;;;;;;6.80;3.70;;;;;;;30.27;32.02;99347.08;218540;1257;140974;-70
2023/07/05 14:29:56;;;;;;;4.00;3.60;;;;;;;30.15;32.22;99341.60;217860;1257;139807;-68
2023/07/05 14:35:14;;;;;;;4.80;3.30;;;;;;;29.92;32.55;99340.99;219366;1257;139992;-69
2023/07/05 14:40:19;;;;;;;;;;;;;;;29.58;32.92;99340.60;218433;1256;139550;-69
2023/07/05 14:45:30;;;;;;;3.40;3.00;;;;;;;29.30;32.89;99340.57;220383;1256;126606;-71
2023/07/05 14:50:35;;;;;;;3.70;2.80;;;;;;;29.11;33.58;99344.89;220311;1256;139583;-70
2023/07/05 14:55:40;;;;;;;4.70;3.60;;;;;;;28.93;33.94;99352.28;220267;1256;139442;-69
2023/07/05 15:00:46;;;;;;;4.00;3.10;;;;;;;28.65;34.22;99373.79;218196;1257;138996;-74
2023/07/05 15:05:51;;;;;;;4.40;3.20;;;;;;;28.16;34.88;99401.92;219128;1256;140059;-70
2023/07/05 15:10:57;;;;;;;6.00;3.00;;;;;;;27.40;35.97;99419.67;218587;1257;139159;-71
2023/07/05 15:16:06;;;;;;;5.10;2.60;;;;;;;26.71;37.33;99445.55;218125;1255;139894;-66
2023/07/05 15:21:19;;;;;;;1.90;1.80;;;;;;;25.76;39.05;99469.16;218756;1259;139561;-65
2023/07/05 15:26:27;;;;;;;;;;;;;;;24.78;41.27;99489.98;218547;1256;139380;-68
2023/07/05 15:31:34;;;;;;;5.40;1.70;;;;;;;24.00;43.41;99488.06;217993;1256;126255;-68
2023/07/05 15:36:38;;;;;;;1.90;1.80;;;;;;;23.31;45.33;99486.08;218169;1257;140241;-63
2023/07/05 15:41:44;;;;;;;5.40;1.90;;;;;;;22.65;47.72;99496.48;217849;1257;138945;-64
2023/07/05 15:46:49;;;;;;;1.70;1.60;;;;;;;21.87;49.79;99503.46;217799;1256;139839;-63
2023/07/05 15:51:54;;;;;;;1.40;1.30;;;;;;;21.24;51.64;99509.59;217851;1255;141268;-62
2023/07/05 15:57:08;;;;;;;3.50;1.90;;;;;;;20.66;53.44;99528.40;217963;1256;139211;-63
2023/07/05 16:02:26;;;;;;;6.70;1.50;;;;;;;20.36;54.92;99484.84;218596;1259;139877;-66
2023/07/05 16:07:32;;;;;;;3.30;1.40;;;;;;;20.28;56.33;99424.14;218364;1256;140261;-66
2023/07/05 16:12:36;;;;;;;4.40;1.70;;;;;;;20.33;57.38;99396.20;218613;1256;140819;-65
2023/07/05 16:17:42;;;;;;;6.50;1.50;;;;;;;20.41;58.18;99385.50;217793;1257;140722;-66
2023/07/05 16:22:46;;;;;;;9.40;1.70;;;;;;;20.53;59.06;99371.75;217770;1257;140529;-66
2023/07/05 16:27:51;;;;;;;2.90;1.30;;;;;;;20.63;59.68;99373.23;219109;1256;140065;-66
2023/07/05 16:33:01;;;;;;;1.80;1.20;;;;;;;20.72;60.76;99377.35;217671;1257;140007;-65
2023/07/05 16:38:08;;;;;;;3.90;1.40;;;;;;;20.86;61.41;99372.69;220373;1257;140242;-65
2023/07/05 16:43:15;;;;;;;3.70;2.20;;;;;;;20.79;61.89;99372.60;217740;1257;139894;-65
2023/07/05 16:48:21;;;;;;;4.80;2.10;;;;;;;20.82;62.83;99373.05;219317;1257;140716;-67
2023/07/05 16:53:26;;;;;;;2.20;1.80;;;;;;;20.72;63.49;99369.67;218729;1255;140865;-67
2023/07/05 16:58:31;;;;;;;2.70;2.10;;;;;;;20.72;64.16;99367.31;219593;1256;142644;-67
2023/07/05 17:03:40;;;;;;;3.60;2.00;;;;;;;20.76;64.63;99365.01;218441;1257;140361;-68
2023/07/05 17:08:46;;;;;;;6.50;3.20;;;;;;;20.82;65.14;99352.90;217640;1257;139621;-67
2023/07/05 17:13:52;;;;;;;;;;;;;;;20.85;65.50;99351.59;219071;1256;142061;-66
2023/07/05 17:18:57;;;;;;;5.00;2.10;;;;;;;20.64;65.82;99363.95;219201;1256;126279;-67
2023/07/05 17:24:02;;;;;;;3.90;2.40;;;;;;;20.39;66.27;99358.18;218904;1257;140363;-66
2023/07/05 17:29:08;;;;;;;4.30;2.10;;;;;;;20.33;66.97;99359.02;218431;1256;140824;-69
2023/07/05 17:34:16;;;;;;;16.80;3.90;;;;;;;20.23;67.27;99355.02;217581;1259;141360;-69
2023/07/05 17:39:21;;;;;;;17.50;2.90;;;;;;;20.20;67.85;99361.95;217841;1257;139843;-68
2023/07/05 17:44:27;;;;;;;2.40;2.20;;;;;;;20.25;68.35;99395.68;217724;1257;140289;-68
2023/07/05 17:49:33;;;;;;;3.20;1.90;;;;;;;20.05;68.74;99475.73;217746;1257;141259;-68
2023/07/05 17:54:49;;;;;;;6.80;2.00;;;;;;;19.76;69.21;99495.78;218483;1257;139853;-67
2023/07/05 18:00:01;;;;;;;6.20;3.00;;;;;;;19.60;69.72;99539.92;218595;1256;139819;-67
2023/07/05 18:05:06;;;;;;;3.40;2.30;;;;;;;19.41;69.94;99513.88;217637;1259;139599;-67
2023/07/05 18:10:12;;;;;;;4.30;3.10;;;;;;;19.29;70.39;99530.89;219161;1256;140746;-67
2023/07/05 18:15:20;;;;;;;3.00;2.30;;;;;;;19.23;70.68;99538.41;217935;1256;140729;-67
2023/07/05 18:20:29;;;;;;;2.80;1.90;;;;;;;19.07;71.15;99533.16;218222;1256;141064;-67
2023/07/05 18:25:39;;;;;;;4.10;2.50;;;;;;;18.94;71.70;99536.77;217971;1256;141092;-67
2023/07/05 18:30:53;;;;;;;4.20;3.00;;;;;;;18.88;72.20;99544.60;219574;1256;140246;-67
2023/07/05 18:36:03;;;;;;;3.80;3.40;;;;;;;18.82;72.59;99561.59;220390;1257;140699;-68
2023/07/05 18:41:13;;;;;;;10.70;4.00;;;;;;;18.77;73.02;99548.11;220480;1256;142087;-68
2023/07/05 18:46:18;;;;;;;4.70;3.40;;;;;;;18.74;73.32;99529.58;220172;1256;140577;-67
2023/07/05 18:51:23;;;;;;;4.60;4.00;;;;;;;18.70;73.48;99524.62;220381;1256;139907;-68
2023/07/05 18:56:30;;;;;;;6.10;4.50;;;;;;;18.63;74.02;99516.85;218560;1256;140243;-67
2023/07/05 19:01:40;;;;;;;6.30;4.10;;;;;;;18.58;74.49;99520.95;218381;1256;140001;-67
2023/07/05 19:06:47;;;;;;;5.70;3.60;;;;;;;18.50;74.88;99518.41;219461;1256;141491;-67
2023/07/05 19:11:53;;;;;;;6.50;4.10;;;;;;;18.39;75.40;99516.46;217682;1257;140254;-67
2023/07/05 19:16:59;;;;;;;4.40;3.90;;;;;;;18.30;75.95;99511.95;218663;1255;140348;-67
2023/07/05 19:22:05;;;;;;;3.70;3.40;;;;;;;18.30;76.00;99509.09;217766;1260;140155;-67
2023/07/05 19:27:12;;;;;;;6.70;4.20;;;;;;;18.35;76.17;99516.47;218564;1260;140125;-67
2023/07/05 19:32:24;;;;;;;3.90;3.20;;;;;;;18.37;76.15;99514.90;218527;1259;140295;-66
2023/07/05 19:37:30;;;;;;;6.40;3.20;;;;;;;18.36;75.96;99511.69;218259;1256;140271;-67
2023/07/05 19:42:36;;;;;;;7.10;4.00;;;;;;;18.33;76.13;99516.60;218351;1256;140108;-67
2023/07/05 19:47:42;;;;;;;4.70;3.30;;;;;;;18.30;76.27;99521.83;218400;1256;140028;-67
2023/07/05 19:52:50;;;;;;;4.90;3.70;;;;;;;18.25;76.45;99526.11;218132;1257;139839;-67
2023/07/05 19:57:59;;;;;;;3.60;3.20;;;;;;;18.25;76.52;99525.41;217692;1256;140107;-67
2023/07/05 20:03:09;;;;;;;3.50;2.80;;;;;;;18.23;76.54;99526.83;219429;1256;140560;-66
2023/07/05 20:08:17;;;;;;;3.10;2.70;;;;;;;18.19;76.69;99531.73;218219;1257;139904;-67
2023/07/05 20:13:25;;;;;;;4.00;3.50;;;;;;;18.15;76.70;99535.73;218596;1256;140536;-67
2023/07/05 20:18:34;;;;;;;4.60;3.20;;;;;;;18.12;76.84;99537.05;218220;1256;140871;-66
2023/07/05 20:23:46;;;;;;;7.30;3.10;;;;;;;18.08;77.11;99525.44;219171;1256;140207;-67
2023/07/05 20:28:50;;;;;;;;;;;;;;;18.10;77.11;99529.20;220218;1256;141057;-67
2023/07/05 20:33:57;;;;;;;5.80;3.40;;;;;;;18.05;77.40;99551.86;218368;1259;127987;-67
2023/07/05 20:39:01;;;;;;;;;;;;;;;18.00;77.50;99548.77;218869;1256;141750;-66
2023/07/05 20:44:08;;;;;;;3.90;3.10;;;;;;;17.93;77.80;99551.48;220541;1256;127208;-67
2023/07/05 20:49:13;;;;;;;4.20;3.80;;;;;;;17.91;77.45;99552.85;219360;1257;140495;-67
2023/07/05 20:54:21;;;;;;;6.00;3.50;;;;;;;17.89;77.61;99560.37;218571;1256;141499;-66
2023/07/05 20:59:27;;;;;;;4.10;3.50;;;;;;;17.89;77.65;99571.64;219342;1256;140198;-66
2023/07/05 21:04:34;;;;;;;4.20;3.80;;;;;;;17.83;77.79;99561.98;218131;1256;140153;-65
2023/07/05 21:09:45;;;;;;;8.80;4.10;;;;;;;17.84;78.07;99563.98;218267;1256;140765;-66
2023/07/05 21:14:50;;;;;;;4.60;4.20;;;;;;;17.85;78.16;99567.30;219066;1256;140094;-66
2023/07/05 21:19:55;;;;;;;5.50;4.00;;;;;;;17.91;78.30;99572.16;218458;1258;139920;-66
2023/07/05 21:25:06;;;;;;;6.20;4.80;;;;;;;17.93;78.27;99575.10;218494;1257;140317;-66
2023/07/05 21:30:19;;;;;;;4.20;3.70;;;;;;;17.94;78.35;99575.42;218444;1256;139907;-66
2023/07/05 21:35:29;;;;;;;6.00;4.60;;;;;;;17.87;78.33;99572.73;218095;1257;141516;-66
2023/07/05 21:40:37;;;;;;;14.50;5.00;;;;;;;17.84;78.49;99572.23;218562;1256;139731;-66
2023/07/05 21:45:44;;;;;;;10.70;6.00;;;;;;;17.81;78.70;99565.08;218260;1257;140115;-66
2023/07/05 21:50:49;;;;;;;10.80;5.90;;;;;;;17.78;78.53;99569.42;217423;1256;140139;-68
2023/07/05 21:56:01;;;;;;;8.00;5.70;;;;;;;17.76;78.85;99571.06;218746;1256;140631;-66
2023/07/05 22:01:09;;;;;;;5.80;5.10;;;;;;;17.70;78.91;99573.42;217806;1256;140647;-68
2023/07/05 22:06:24;;;;;;;6.90;4.20;;;;;;;17.63;79.10;99578.25;217792;1256;140196;-67
2023/07/05 22:11:29;;;;;;;5.90;5.00;;;;;;;17.60;79.32;99588.24;217815;1257;140233;-67
2023/07/05 22:16:35;;;;;;;7.80;6.00;;;;;;;17.56;79.46;99594.64;217767;1256;140277;-67
2023/07/05 22:21:40;;;;;;;10.00;5.10;;;;;;;17.53;79.65;99596.22;217577;1260;141754;-67
2023/07/05 22:26:45;;;;;;;9.00;5.40;;;;;;;17.51;79.79;99596.46;218212;1256;140091;-68
2023/07/05 22:31:51;;;;;;;6.20;4.20;;;;;;;17.54;79.98;99598.27;218899;1257;139802;-67
2023/07/05 22:36:55;;;;;;;7.00;4.10;;;;;;;17.57;79.98;99599.10;217605;1257;139547;-67
2023/07/05 22:42:00;;;;;;;4.90;4.40;;;;;;;17.55;80.02;99607.96;218297;1257;353634;-67
2023/07/05 22:47:06;;;;;;;4.90;4.40;;;;;;;17.54;80.12;99617.61;218322;1257;140106;-67
2023/07/05 22:52:10;;;;;;;6.10;4.20;;;;;;;17.50;80.29;99620.02;220192;1256;142124;-68
2023/07/05 22:57:17;;;;;;;4.50;3.70;;;;;;;17.46;80.47;99618.05;219002;1256;139988;-68
2023/07/05 23:02:24;;;;;;;7.10;4.70;;;;;;;17.46;80.65;99618.00;219351;1257;140538;-67
2023/07/05 23:07:28;;;;;;;;;;;;;;;17.49;80.72;99619.60;218125;1257;139925;-68
2023/07/05 23:12:32;;;;;;;6.60;4.10;;;;;;;17.47;80.95;99619.35;218614;1256;126169;-67
2023/07/05 23:17:38;;;;;;;6.20;4.30;;;;;;;17.49;81.22;99622.02;218296;1259;139766;-68
2023/07/05 23:22:43;;;;;;;7.00;4.60;;;;;;;17.53;81.16;99621.84;218219;1256;140309;-67
2023/07/05 23:27:49;;;;;;;6.40;4.60;;;;;;;17.55;81.35;99619.23;217946;1257;140339;-66
2023/07/05 23:32:55;;;;;;;4.50;4.00;;;;;;;17.58;81.48;99615.38;219405;1257;140451;-67